createdAt,value
2018-11-05T00:01:12.513Z,40.67
2018-11-05T00:03:48.721Z,39.83
2018-11-05T00:06:24.597Z,38.07
2018-11-05T00:09:00.856Z,37.83
2018-11-05T00:11:37.021Z,38.33
2018-11-05T00:14:13.181Z,37.30
2018-11-05T00:16:49.500Z,38.07
2018-11-05T00:19:25.460Z,37.93
2018-11-05T00:22:01.433Z,39.00
2018-11-05T00:24:37.574Z,37.87
2018-11-05T00:27:13.417Z,39.83
2018-11-05T00:29:49.586Z,38.00
2018-11-05T00:32:25.504Z,38.03
2018-11-05T00:35:01.583Z,38.23
2018-11-05T00:37:37.472Z,36.43
2018-11-05T00:40:14.923Z,35.63
2018-11-05T00:42:50.887Z,37.13
2018-11-05T00:45:26.723Z,37.50
2018-11-05T00:48:02.832Z,37.30
2018-11-05T00:50:38.699Z,37.13
2018-11-05T00:53:14.644Z,36.43
2018-11-05T00:55:50.405Z,37.03
2018-11-05T00:58:26.436Z,34.37
2018-11-05T01:01:01.955Z,36.63
2018-11-05T01:03:38.221Z,36.30
2018-11-05T01:06:14.033Z,35.27
2018-11-05T01:08:50.104Z,35.57
2018-11-05T01:11:26.393Z,34.87
2018-11-05T01:14:02.232Z,35.37
2018-11-05T01:16:38.224Z,35.23
2018-11-05T01:19:13.982Z,35.30
2018-11-05T01:21:49.994Z,35.17
2018-11-05T01:24:25.575Z,37.20
2018-11-05T01:27:01.714Z,34.23
2018-11-05T01:29:37.853Z,34.20
2018-11-05T01:32:13.920Z,35.63
2018-11-05T01:34:49.837Z,36.50
2018-11-05T01:37:25.749Z,35.23
2018-11-05T01:40:01.613Z,34.73
2018-11-05T01:42:37.664Z,34.63
2018-11-05T01:45:14.538Z,33.83
2018-11-05T01:47:50.697Z,34.07
2018-11-05T01:50:26.655Z,33.53
2018-11-05T01:53:02.707Z,33.80
2018-11-05T01:55:38.773Z,32.87
2018-11-05T01:58:14.717Z,33.30
2018-11-05T02:00:50.797Z,34.60
2018-11-05T02:03:26.502Z,33.40
2018-11-05T02:06:02.391Z,32.80
2018-11-05T02:08:38.549Z,36.27
2018-11-05T02:11:14.564Z,32.60
2018-11-05T02:13:50.623Z,31.83
2018-11-05T02:16:26.421Z,32.47
2018-11-05T02:19:02.423Z,31.60
2018-11-05T02:21:38.317Z,31.10
2018-11-05T02:24:14.269Z,32.83
2018-11-05T02:26:50.224Z,31.90
2018-11-05T02:29:26.090Z,32.30
2018-11-05T02:32:01.962Z,33.00
2018-11-05T02:34:38.034Z,32.33
2018-11-05T02:37:13.701Z,33.00
2018-11-05T02:39:49.568Z,33.67
2018-11-05T02:42:25.742Z,34.27
2018-11-05T02:45:01.705Z,31.77
2018-11-05T02:47:37.378Z,33.23
2018-11-05T02:50:14.111Z,30.07
2018-11-05T02:52:50.051Z,31.93
2018-11-05T02:55:26.025Z,30.30
2018-11-05T02:58:01.926Z,32.57
2018-11-05T03:00:37.216Z,32.23
2018-11-05T03:03:13.294Z,31.83
2018-11-05T03:05:49.480Z,31.53
2018-11-05T03:08:25.608Z,30.10
2018-11-05T03:11:01.585Z,31.87
2018-11-05T03:13:37.040Z,33.33
2018-11-05T03:16:13.098Z,29.70
2018-11-05T03:18:49.099Z,30.57
2018-11-05T03:21:24.851Z,31.20
2018-11-05T03:24:00.868Z,31.73
2018-11-05T03:26:36.719Z,31.33
2018-11-05T03:29:12.752Z,29.80
2018-11-05T03:31:48.584Z,31.13
2018-11-05T03:34:24.809Z,31.37
2018-11-05T03:37:00.760Z,31.60
2018-11-05T03:39:36.751Z,31.13
2018-11-05T03:42:12.858Z,32.57
2018-11-05T03:44:48.989Z,32.47
2018-11-05T03:47:25.108Z,31.37
2018-11-05T03:50:00.844Z,32.23
2018-11-05T03:52:36.852Z,30.60
2018-11-05T03:55:13.257Z,30.67
2018-11-05T03:57:49.376Z,30.33
2018-11-05T04:00:26.616Z,31.03
2018-11-05T04:03:01.865Z,30.00
2018-11-05T04:05:37.880Z,31.27
2018-11-05T04:08:13.857Z,29.87
2018-11-05T04:10:49.956Z,31.80
2018-11-05T04:13:25.948Z,30.07
2018-11-05T04:16:02.063Z,32.43
2018-11-05T04:18:38.120Z,32.80
2018-11-05T04:21:14.195Z,30.27
2018-11-05T04:23:50.330Z,30.60
2018-11-05T04:26:26.232Z,30.30
2018-11-05T04:29:02.353Z,29.47
2018-11-05T04:31:38.701Z,30.20
2018-11-05T04:34:14.948Z,29.90
2018-11-05T04:36:50.989Z,30.07
2018-11-05T04:39:26.856Z,31.70
2018-11-05T04:42:02.765Z,30.07
2018-11-05T04:44:38.865Z,30.67
2018-11-05T04:47:14.815Z,36.17
2018-11-05T04:49:50.773Z,35.37
2018-11-05T04:52:26.848Z,31.93
2018-11-05T04:55:02.919Z,36.00
2018-11-05T04:57:39.169Z,32.10
2018-11-05T05:00:17.561Z,29.93
2018-11-05T05:02:53.417Z,31.83
2018-11-05T05:05:43.377Z,38.07
2018-11-05T05:08:19.356Z,32.40
2018-11-05T05:10:55.332Z,31.80
2018-11-05T05:13:31.255Z,28.57
2018-11-05T05:16:06.654Z,28.37
2018-11-05T05:18:42.633Z,28.20
2018-11-05T05:21:18.743Z,28.93
2018-11-05T05:23:54.042Z,27.83
2018-11-05T05:26:29.812Z,29.00
2018-11-05T05:29:05.768Z,27.77
2018-11-05T05:31:41.712Z,28.03
2018-11-05T05:34:17.651Z,28.17
2018-11-05T05:36:53.552Z,28.60
2018-11-05T05:39:29.792Z,28.33
2018-11-05T05:42:05.888Z,28.53
2018-11-05T05:44:42.012Z,32.97
2018-11-05T05:47:17.978Z,31.17
2018-11-05T05:49:54.065Z,31.07
2018-11-05T05:52:29.957Z,28.83
2018-11-05T05:55:06.920Z,29.47
2018-11-05T05:57:42.822Z,28.53
2018-11-05T06:00:19.289Z,30.57
2018-11-05T06:02:55.241Z,28.00
2018-11-05T06:05:31.168Z,27.77
2018-11-05T06:08:07.688Z,36.77
2018-11-05T06:10:43.592Z,28.83
2018-11-05T06:13:19.533Z,27.77
2018-11-05T06:15:55.308Z,27.33
2018-11-05T06:18:30.601Z,28.67
2018-11-05T06:21:06.524Z,29.77
2018-11-05T06:23:42.806Z,28.23
2018-11-05T06:26:18.919Z,26.83
2018-11-05T06:28:54.937Z,27.93
2018-11-05T06:31:30.344Z,27.97
2018-11-05T06:34:06.581Z,31.73
2018-11-05T06:36:42.332Z,27.47
2018-11-05T06:39:18.165Z,28.90
2018-11-05T06:41:54.351Z,28.50
2018-11-05T06:44:30.449Z,31.07
2018-11-05T06:47:05.996Z,35.30
2018-11-05T06:49:42.072Z,32.63
2018-11-05T06:52:17.785Z,29.30
2018-11-05T06:54:54.749Z,30.07
2018-11-05T06:57:30.618Z,30.50
2018-11-05T07:00:08.601Z,29.30
2018-11-05T07:02:44.562Z,30.27
2018-11-05T07:05:20.496Z,28.83
2018-11-05T07:07:56.487Z,28.70
2018-11-05T07:10:32.337Z,29.07
2018-11-05T07:13:08.447Z,28.33
2018-11-05T07:15:44.552Z,30.03
2018-11-05T07:18:20.691Z,30.37
2018-11-05T07:20:56.571Z,30.17
2018-11-05T07:23:32.933Z,30.77
2018-11-05T07:26:09.157Z,31.10
2018-11-05T07:28:44.765Z,31.17
2018-11-05T07:31:20.130Z,29.63
2018-11-05T07:33:55.385Z,29.20
2018-11-05T07:36:31.421Z,29.87
2018-11-05T07:39:08.666Z,29.50
2018-11-05T07:41:44.543Z,29.33
2018-11-05T07:44:20.669Z,30.60
2018-11-05T07:46:56.524Z,30.87
2018-11-05T07:49:32.580Z,28.40
2018-11-05T07:52:08.609Z,27.47
2018-11-05T07:54:44.596Z,28.00
2018-11-05T07:57:20.962Z,27.33
2018-11-05T07:59:56.915Z,26.83
2018-11-05T08:02:32.671Z,27.10
2018-11-05T08:05:08.960Z,26.17
2018-11-05T08:07:45.040Z,27.10
2018-11-05T08:10:21.047Z,24.90
2018-11-05T08:12:57.057Z,25.57
2018-11-05T08:15:33.020Z,24.13
2018-11-05T08:18:08.351Z,23.67
2018-11-05T08:20:44.228Z,23.97
2018-11-05T08:23:20.252Z,23.27
2018-11-05T08:25:56.196Z,24.67
2018-11-05T08:28:32.161Z,23.30
2018-11-05T08:31:08.079Z,21.27
2018-11-05T08:33:44.074Z,22.47
2018-11-05T08:36:19.928Z,22.57
2018-11-05T08:38:55.880Z,23.13
2018-11-05T08:41:31.809Z,22.40
2018-11-05T08:44:08.965Z,21.87
2018-11-05T08:46:44.822Z,20.97
2018-11-05T08:49:20.110Z,22.17
2018-11-05T08:51:56.100Z,21.90
2018-11-05T08:54:31.845Z,20.70
2018-11-05T08:57:08.272Z,20.83
2018-11-05T08:59:44.304Z,21.90
2018-11-05T09:02:19.804Z,19.53
2018-11-05T09:04:55.780Z,20.70
2018-11-05T09:07:31.780Z,19.37
2018-11-05T09:10:08.731Z,19.57
2018-11-05T09:12:44.643Z,19.63
2018-11-05T09:15:21.585Z,21.33
2018-11-05T09:17:57.497Z,18.00
2018-11-05T09:20:33.624Z,18.23
2018-11-05T09:23:09.221Z,18.23
2018-11-05T09:25:45.265Z,17.70
2018-11-05T09:28:21.366Z,18.13
2018-11-05T09:30:57.634Z,16.60
2018-11-05T09:33:33.452Z,16.37
2018-11-05T09:36:08.886Z,15.30
2018-11-05T09:38:44.485Z,15.87
2018-11-05T09:41:20.649Z,17.53
2018-11-05T09:43:56.603Z,16.30
2018-11-05T09:46:32.501Z,16.47
2018-11-05T09:49:08.004Z,16.43
2018-11-05T09:51:43.900Z,15.83
2018-11-05T09:54:19.701Z,16.27
2018-11-05T09:56:55.479Z,16.30
2018-11-05T09:59:31.309Z,17.17
2018-11-05T10:02:07.201Z,16.70
2018-11-05T10:04:43.411Z,16.40
2018-11-05T10:07:19.128Z,15.13
2018-11-05T10:09:55.123Z,15.40
2018-11-05T10:12:31.139Z,14.73
2018-11-05T10:15:07.609Z,14.83
2018-11-05T10:17:43.454Z,14.30
2018-11-05T10:20:20.336Z,14.50
2018-11-05T10:22:56.848Z,14.07
2018-11-05T10:25:32.768Z,13.97
2018-11-05T10:28:09.612Z,13.77
2018-11-05T10:30:45.082Z,13.70
2018-11-05T10:33:20.760Z,12.80
2018-11-05T10:35:57.169Z,13.87
2018-11-05T10:38:32.982Z,13.40
2018-11-05T10:41:08.729Z,13.07
2018-11-05T10:43:43.877Z,13.03
2018-11-05T10:46:20.075Z,13.00
2018-11-05T10:48:55.853Z,14.60
2018-11-05T10:51:31.890Z,13.57
2018-11-05T10:54:07.929Z,13.50
2018-11-05T10:56:43.840Z,15.80
2018-11-05T10:59:19.064Z,14.13
2018-11-05T11:01:59.876Z,13.77
2018-11-05T11:04:36.443Z,14.00
2018-11-05T11:07:12.321Z,13.90
2018-11-05T11:09:48.318Z,14.47
2018-11-05T11:12:23.650Z,13.07
2018-11-05T11:14:59.539Z,13.03
2018-11-05T11:17:35.586Z,13.83
2018-11-05T11:20:12.679Z,12.40
2018-11-05T11:22:48.216Z,13.53
2018-11-05T11:25:24.303Z,12.97
2018-11-05T11:28:00.086Z,15.40
2018-11-05T11:30:35.955Z,13.73
2018-11-05T11:33:11.656Z,12.40
2018-11-05T11:35:47.279Z,15.27
2018-11-05T11:38:23.174Z,14.77
2018-11-05T11:40:58.677Z,14.37
2018-11-05T11:43:34.467Z,20.27
2018-11-05T11:46:10.060Z,14.97
2018-11-05T11:48:45.964Z,16.03
2018-11-05T11:51:21.058Z,13.37
2018-11-05T11:53:56.850Z,15.40
2018-11-05T11:56:32.400Z,15.20
2018-11-05T11:59:08.759Z,15.57
2018-11-05T12:01:57.412Z,15.80
2018-11-05T12:04:33.590Z,15.60
2018-11-05T12:07:09.416Z,14.67
2018-11-05T12:09:45.453Z,15.40
2018-11-05T12:12:21.539Z,16.17
2018-11-05T12:14:57.444Z,16.93
2018-11-05T12:17:33.279Z,16.10
2018-11-05T12:20:11.406Z,16.10
2018-11-05T12:22:48.045Z,17.47
2018-11-05T12:25:23.732Z,19.13
2018-11-05T12:27:59.516Z,16.37
2018-11-05T12:30:35.421Z,16.47
2018-11-05T12:33:11.193Z,14.87
2018-11-05T12:35:46.737Z,16.70
2018-11-05T12:38:22.899Z,15.33
2018-11-05T12:40:58.547Z,14.70
2018-11-05T12:43:33.889Z,14.67
2018-11-05T12:46:09.384Z,14.70
2018-11-05T12:48:45.080Z,14.50
2018-11-05T12:51:20.665Z,14.03
2018-11-05T12:53:56.792Z,14.40
2018-11-05T12:56:33.073Z,13.80
2018-11-05T12:59:08.954Z,13.93
2018-11-05T13:01:44.845Z,13.73
2018-11-05T13:04:20.565Z,13.93
2018-11-05T13:06:56.327Z,13.47
2018-11-05T13:09:32.219Z,15.20
2018-11-05T13:12:08.381Z,15.50
2018-11-05T13:14:44.113Z,14.03
2018-11-05T13:17:19.798Z,14.07
2018-11-05T13:19:55.451Z,14.80
2018-11-05T13:22:31.473Z,16.03
2018-11-05T13:25:07.209Z,15.00
2018-11-05T13:27:45.198Z,14.50
2018-11-05T13:30:20.852Z,14.33
2018-11-05T13:32:56.602Z,14.80
2018-11-05T13:35:32.135Z,15.17
2018-11-05T13:38:08.456Z,13.90
2018-11-05T13:40:44.245Z,15.90
2018-11-05T13:43:20.160Z,14.27
2018-11-05T13:45:56.226Z,14.53
2018-11-05T13:48:32.522Z,14.50
2018-11-05T13:51:07.969Z,13.47
2018-11-05T13:53:43.766Z,14.30
2018-11-05T13:56:18.980Z,13.87
2018-11-05T13:58:54.699Z,13.83
2018-11-05T14:01:30.645Z,14.43
2018-11-05T14:04:05.762Z,15.00
2018-11-05T14:06:41.373Z,13.67
2018-11-05T14:09:17.487Z,14.97
2018-11-05T14:11:53.412Z,16.90
2018-11-05T14:14:29.025Z,12.20
2018-11-05T14:17:05.154Z,15.23
2018-11-05T14:19:40.983Z,13.33
2018-11-05T14:22:16.705Z,13.00
2018-11-05T14:24:52.467Z,12.23
2018-11-05T14:27:28.375Z,12.93
2018-11-05T14:30:04.533Z,13.83
2018-11-05T14:32:41.173Z,13.67
2018-11-05T14:35:16.985Z,13.33
2018-11-05T14:37:52.980Z,13.73
2018-11-05T14:40:28.837Z,23.33
2018-11-05T14:43:04.582Z,15.60
2018-11-05T14:45:40.482Z,14.90
2018-11-05T14:48:16.011Z,13.93
2018-11-05T14:50:52.176Z,13.90
2018-11-05T14:53:27.817Z,14.33
2018-11-05T14:56:03.809Z,12.87
2018-11-05T14:58:38.861Z,15.87
2018-11-05T15:01:14.091Z,15.67
2018-11-05T15:03:50.081Z,15.63
2018-11-05T15:06:25.880Z,17.77
2018-11-05T15:09:01.996Z,17.40
2018-11-05T15:11:37.914Z,15.17
2018-11-05T15:14:14.289Z,17.17
2018-11-05T15:16:50.151Z,14.50
2018-11-05T15:19:25.998Z,13.87
2018-11-05T15:22:01.589Z,13.23
2018-11-05T15:24:36.880Z,11.90
2018-11-05T15:27:12.746Z,39.50
2018-11-05T15:29:48.680Z,73.60
2018-11-05T15:32:24.671Z,66.73
2018-11-05T15:35:00.326Z,55.37
2018-11-05T15:37:36.662Z,66.63
2018-11-05T15:40:15.207Z,41.23
2018-11-05T15:42:51.264Z,31.27
2018-11-05T15:45:27.018Z,50.17
2018-11-05T15:48:02.666Z,34.17
2018-11-05T15:50:38.565Z,20.27
2018-11-05T15:53:14.825Z,22.10
2018-11-05T15:55:49.612Z,18.87
2018-11-05T15:58:25.148Z,19.87
2018-11-05T16:01:00.601Z,20.73
2018-11-05T16:03:36.662Z,15.90
2018-11-05T16:06:12.257Z,17.27
2018-11-05T16:08:48.047Z,17.53
2018-11-05T16:11:24.010Z,17.33
2018-11-05T16:13:59.622Z,21.93
2018-11-05T16:16:35.797Z,20.73
2018-11-05T17:18:01.038Z,13.53
2018-11-05T17:20:36.971Z,12.27
2018-11-05T17:23:12.758Z,11.37
2018-11-05T17:25:48.692Z,10.97
2018-11-05T17:28:24.575Z,10.20
2018-11-05T17:31:00.347Z,10.20
2018-11-05T17:33:36.205Z,10.13
2018-11-05T17:36:12.076Z,9.93
2018-11-05T17:38:48.070Z,9.60
2018-11-05T17:41:23.878Z,9.03
2018-11-05T17:43:59.753Z,10.83
2018-11-05T17:46:35.812Z,9.13
2018-11-05T17:49:12.861Z,9.73
2018-11-05T17:51:48.196Z,9.70
2018-11-05T17:54:23.742Z,9.70
2018-11-05T17:56:59.709Z,9.43
2018-11-05T17:59:36.002Z,10.73
2018-11-05T18:02:15.932Z,9.70
2018-11-05T18:04:53.137Z,11.67
2018-11-05T18:07:28.901Z,10.73
2018-11-05T18:10:05.345Z,9.47
2018-11-05T18:12:41.157Z,10.47
2018-11-05T18:15:16.891Z,12.43
2018-11-05T18:17:52.403Z,10.37
2018-11-05T18:20:28.605Z,9.83
2018-11-05T18:23:04.245Z,11.00
2018-11-05T18:25:40.401Z,11.83
2018-11-05T18:28:16.245Z,11.47
2018-11-05T18:30:52.210Z,12.50
2018-11-05T18:33:28.156Z,11.50
2018-11-05T18:36:03.940Z,11.27
2018-11-05T18:38:39.608Z,11.03
2018-11-05T18:41:15.560Z,10.33
2018-11-05T18:43:51.306Z,11.50
2018-11-05T18:46:26.932Z,10.77
2018-11-05T18:49:02.852Z,11.77
2018-11-05T18:52:09.845Z,14.60
2018-11-05T18:54:45.633Z,14.27
2018-11-05T18:57:21.465Z,12.60
2018-11-05T18:59:57.340Z,13.83
2018-11-05T19:02:34.719Z,11.13
2018-11-05T19:05:09.835Z,11.73
2018-11-05T19:07:45.838Z,11.40
2018-11-05T19:10:22.092Z,11.70
2018-11-05T19:12:57.741Z,13.07
2018-11-05T19:15:33.720Z,13.10
2018-11-05T19:18:09.905Z,16.93
2018-11-05T19:20:45.993Z,12.93
2018-11-05T19:23:22.001Z,11.67
2018-11-05T19:25:57.824Z,10.00
2018-11-05T19:28:32.956Z,10.93
2018-11-05T19:31:08.880Z,10.20
2018-11-05T19:33:45.317Z,10.83
2018-11-05T19:37:45.207Z,13.00
2018-11-05T19:40:21.351Z,13.30
2018-11-05T19:42:57.281Z,15.37
2018-11-05T19:45:33.288Z,14.63
2018-11-05T19:48:09.061Z,13.90
2018-11-05T19:50:45.282Z,14.37
2018-11-05T19:53:21.289Z,22.97
2018-11-05T19:55:57.270Z,25.13
2018-11-05T19:58:33.528Z,25.90
2018-11-05T20:01:09.663Z,24.70
2018-11-05T20:03:45.619Z,19.53
2018-11-05T20:06:21.547Z,19.93
2018-11-05T20:08:57.365Z,17.47
2018-11-05T20:11:34.529Z,19.40
2018-11-05T20:14:10.341Z,19.00
2018-11-05T20:16:46.259Z,19.47
2018-11-05T20:19:22.170Z,18.07
2018-11-05T20:21:58.045Z,21.90
2018-11-05T20:24:33.284Z,20.73
2018-11-05T20:27:09.324Z,21.70
2018-11-05T20:29:45.173Z,21.27
2018-11-05T20:32:21.495Z,20.10
2018-11-05T20:34:57.592Z,25.33
2018-11-05T20:37:33.703Z,23.70
2018-11-05T20:40:12.489Z,21.73
2018-11-05T20:42:49.527Z,18.97
2018-11-05T20:45:25.616Z,16.63
2018-11-05T20:48:01.560Z,15.80
2018-11-05T20:50:37.767Z,18.70
2018-11-05T20:53:13.814Z,22.50
2018-11-05T20:55:50.052Z,20.27
2018-11-05T20:58:26.088Z,24.03
2018-11-05T21:01:02.054Z,19.97
2018-11-05T21:03:38.229Z,19.80
2018-11-05T21:06:14.389Z,16.93
2018-11-05T21:08:50.537Z,15.77
2018-11-05T21:11:26.564Z,15.57
2018-11-05T21:14:02.365Z,19.17
2018-11-05T21:16:38.317Z,18.20
2018-11-05T21:19:14.402Z,19.17
2018-11-05T21:21:50.369Z,16.67
2018-11-05T21:24:26.383Z,13.67
2018-11-05T21:27:02.555Z,16.23
2018-11-05T21:29:38.876Z,15.17
2018-11-05T21:32:14.901Z,14.60
2018-11-05T21:34:51.226Z,10.67
2018-11-05T21:37:27.273Z,14.03
2018-11-05T21:40:03.246Z,12.73
2018-11-05T21:42:39.266Z,12.00
2018-11-05T21:45:15.997Z,16.10
2018-11-05T21:47:52.025Z,12.63
2018-11-05T21:50:28.018Z,10.50
2018-11-05T21:53:03.987Z,9.33
2018-11-05T21:55:40.176Z,9.57
2018-11-05T21:58:15.993Z,9.67
2018-11-05T22:00:52.153Z,10.17
2018-11-05T22:03:27.976Z,10.10
2018-11-05T22:06:03.920Z,9.27
2018-11-05T22:08:39.724Z,9.90
2018-11-05T22:11:15.520Z,10.67
2018-11-05T22:13:51.095Z,9.47
2018-11-05T22:16:27.216Z,9.43
2018-11-05T22:19:03.287Z,9.23
2018-11-05T22:21:39.440Z,9.10
2018-11-05T22:24:15.500Z,10.13
2018-11-05T22:27:00.576Z,10.83
2018-11-05T22:29:36.648Z,9.60
2018-11-05T22:32:12.659Z,10.10
2018-11-05T22:34:48.776Z,17.07
2018-11-05T22:37:24.701Z,15.23
2018-11-05T22:40:00.589Z,11.10
2018-11-05T22:42:36.695Z,13.83
2018-11-05T22:45:14.210Z,10.20
2018-11-05T22:47:50.108Z,10.80
2018-11-05T22:50:26.368Z,10.80
2018-11-05T22:53:02.537Z,9.70
2018-11-05T22:55:38.684Z,9.60
2018-11-05T22:58:14.832Z,9.73
2018-11-05T23:00:55.772Z,9.93
2018-11-05T23:03:32.060Z,9.20
2018-11-05T23:06:08.198Z,9.80
2018-11-05T23:08:44.341Z,10.10
2018-11-05T23:11:20.348Z,10.23
2018-11-05T23:13:56.329Z,9.80
2018-11-05T23:16:32.346Z,9.93
2018-11-05T23:19:07.787Z,10.53
2018-11-05T23:21:43.997Z,10.03
2018-11-05T23:24:19.896Z,10.87
2018-11-05T23:26:55.974Z,11.17
2018-11-05T23:29:31.985Z,11.87
2018-11-05T23:32:07.912Z,10.97
2018-11-05T23:34:43.333Z,10.80
2018-11-05T23:37:19.392Z,10.93
2018-11-05T23:39:55.420Z,11.30
2018-11-05T23:42:31.506Z,11.97
2018-11-05T23:45:10.811Z,11.07
2018-11-05T23:47:46.968Z,11.57
2018-11-05T23:50:22.977Z,11.37
2018-11-05T23:52:58.987Z,11.80
2018-11-05T23:55:35.224Z,12.10
2018-11-05T23:58:11.199Z,11.70
